sensor_id;sensor_type;location;lat;lon;timestamp;temperature;humidity
33093;DHT22;19456;46.104;12.908;2023-05-14T00:02:18;11.30;99.90
33093;DHT22;19456;46.104;12.908;2023-05-14T00:04:44;11.40;99.90
33093;DHT22;19456;46.104;12.908;2023-05-14T00:07:10;11.40;99.90
33093;DHT22;19456;46.104;12.908;2023-05-14T00:09:36;11.50;99.90
33093;DHT22;19456;46.104;12.908;2023-05-14T00:12:01;11.50;99.90
33093;DHT22;19456;46.104;12.908;2023-05-14T00:14:27;11.40;99.90
33093;DHT22;19456;46.104;12.908;2023-05-14T00:16:52;11.30;99.90
33093;DHT22;19456;46.104;12.908;2023-05-14T00:19:18;11.20;99.90
33093;DHT22;19456;46.104;12.908;2023-05-14T00:21:43;11.10;99.90
33093;DHT22;19456;46.104;12.908;2023-05-14T00:24:09;10.90;99.90
33093;DHT22;19456;46.104;12.908;2023-05-14T00:26:35;10.70;99.90
33093;DHT22;19456;46.104;12.908;2023-05-14T00:29:00;10.70;99.90
33093;DHT22;19456;46.104;12.908;2023-05-14T00:31:26;10.60;99.90
33093;DHT22;19456;46.104;12.908;2023-05-14T00:33:51;10.50;99.90
33093;DHT22;19456;46.104;12.908;2023-05-14T00:36:17;10.50;99.90
33093;DHT22;19456;46.104;12.908;2023-05-14T00:38:42;10.40;99.90
33093;DHT22;19456;46.104;12.908;2023-05-14T00:41:08;10.40;99.90
33093;DHT22;19456;46.104;12.908;2023-05-14T00:43:33;10.50;99.90
33093;DHT22;19456;46.104;12.908;2023-05-14T00:45:59;10.70;99.90
33093;DHT22;19456;46.104;12.908;2023-05-14T00:48:25;10.70;99.90
33093;DHT22;19456;46.104;12.908;2023-05-14T00:50:50;10.80;99.90
33093;DHT22;19456;46.104;12.908;2023-05-14T00:53:19;10.90;99.90
33093;DHT22;19456;46.104;12.908;2023-05-14T00:55:45;11.00;99.90
33093;DHT22;19456;46.104;12.908;2023-05-14T00:58:11;11.00;99.90
33093;DHT22;19456;46.104;12.908;2023-05-14T01:00:38;11.10;99.90
33093;DHT22;19456;46.104;12.908;2023-05-14T01:03:04;11.00;99.90
33093;DHT22;19456;46.104;12.908;2023-05-14T01:08:13;10.90;99.90
33093;DHT22;19456;46.104;12.908;2023-05-14T01:10:43;10.90;99.90
33093;DHT22;19456;46.104;12.908;2023-05-14T01:15:35;10.80;99.90
33093;DHT22;19456;46.104;12.908;2023-05-14T01:18:03;10.90;99.90
33093;DHT22;19456;46.104;12.908;2023-05-14T01:20:29;10.90;99.90
33093;DHT22;19456;46.104;12.908;2023-05-14T01:22:54;10.70;99.90
33093;DHT22;19456;46.104;12.908;2023-05-14T01:25:20;10.60;99.90
33093;DHT22;19456;46.104;12.908;2023-05-14T01:27:52;10.50;99.90
33093;DHT22;19456;46.104;12.908;2023-05-14T01:30:23;10.50;99.90
33093;DHT22;19456;46.104;12.908;2023-05-14T01:32:53;10.40;99.90
33093;DHT22;19456;46.104;12.908;2023-05-14T01:35:25;10.40;99.90
33093;DHT22;19456;46.104;12.908;2023-05-14T01:37:52;10.30;99.90
33093;DHT22;19456;46.104;12.908;2023-05-14T01:40:19;10.30;99.90
33093;DHT22;19456;46.104;12.908;2023-05-14T01:42:45;10.40;99.90
33093;DHT22;19456;46.104;12.908;2023-05-14T01:45:11;10.50;99.90
33093;DHT22;19456;46.104;12.908;2023-05-14T01:47:36;10.70;99.90
33093;DHT22;19456;46.104;12.908;2023-05-14T01:50:02;10.90;99.90
33093;DHT22;19456;46.104;12.908;2023-05-14T01:52:27;11.10;99.90
33093;DHT22;19456;46.104;12.908;2023-05-14T01:54:53;11.20;99.90
33093;DHT22;19456;46.104;12.908;2023-05-14T01:57:18;11.10;99.90
33093;DHT22;19456;46.104;12.908;2023-05-14T01:59:44;11.10;99.90
33093;DHT22;19456;46.104;12.908;2023-05-14T02:02:09;11.20;99.90
33093;DHT22;19456;46.104;12.908;2023-05-14T02:04:35;11.10;99.90
33093;DHT22;19456;46.104;12.908;2023-05-14T02:07:01;11.10;99.90
33093;DHT22;19456;46.104;12.908;2023-05-14T02:09:26;11.10;99.90
33093;DHT22;19456;46.104;12.908;2023-05-14T02:11:52;11.00;99.90
33093;DHT22;19456;46.104;12.908;2023-05-14T02:14:17;11.00;99.90
33093;DHT22;19456;46.104;12.908;2023-05-14T02:16:43;11.00;99.90
33093;DHT22;19456;46.104;12.908;2023-05-14T02:19:08;11.00;99.90
33093;DHT22;19456;46.104;12.908;2023-05-14T02:21:34;11.20;99.90
33093;DHT22;19456;46.104;12.908;2023-05-14T02:23:59;11.30;99.90
33093;DHT22;19456;46.104;12.908;2023-05-14T02:26:25;11.50;99.90
33093;DHT22;19456;46.104;12.908;2023-05-14T02:28:50;11.60;99.90
33093;DHT22;19456;46.104;12.908;2023-05-14T02:31:16;11.70;99.90
33093;DHT22;19456;46.104;12.908;2023-05-14T02:33:43;11.70;99.90
33093;DHT22;19456;46.104;12.908;2023-05-14T02:36:09;11.80;99.90
33093;DHT22;19456;46.104;12.908;2023-05-14T02:38:34;11.80;99.90
33093;DHT22;19456;46.104;12.908;2023-05-14T02:41:00;11.80;99.90
33093;DHT22;19456;46.104;12.908;2023-05-14T02:43:25;11.80;99.90
33093;DHT22;19456;46.104;12.908;2023-05-14T02:45:51;12.00;99.90
33093;DHT22;19456;46.104;12.908;2023-05-14T02:48:16;12.00;99.90
33093;DHT22;19456;46.104;12.908;2023-05-14T02:50:42;12.20;99.90
33093;DHT22;19456;46.104;12.908;2023-05-14T02:53:08;12.30;99.90
33093;DHT22;19456;46.104;12.908;2023-05-14T02:55:34;12.40;99.90
33093;DHT22;19456;46.104;12.908;2023-05-14T02:57:59;12.40;99.90
33093;DHT22;19456;46.104;12.908;2023-05-14T03:00:25;12.30;99.90
33093;DHT22;19456;46.104;12.908;2023-05-14T03:02:50;12.20;99.90
33093;DHT22;19456;46.104;12.908;2023-05-14T03:05:16;12.10;99.90
33093;DHT22;19456;46.104;12.908;2023-05-14T03:07:41;12.00;99.90
33093;DHT22;19456;46.104;12.908;2023-05-14T03:10:07;11.90;99.90
33093;DHT22;19456;46.104;12.908;2023-05-14T03:12:33;11.80;99.90
33093;DHT22;19456;46.104;12.908;2023-05-14T03:14:58;11.80;99.90
33093;DHT22;19456;46.104;12.908;2023-05-14T03:17:24;11.90;99.90
33093;DHT22;19456;46.104;12.908;2023-05-14T03:19:49;12.00;99.90
33093;DHT22;19456;46.104;12.908;2023-05-14T03:22:15;12.20;99.90
33093;DHT22;19456;46.104;12.908;2023-05-14T03:24:41;12.30;99.90
33093;DHT22;19456;46.104;12.908;2023-05-14T03:27:06;12.30;99.90
33093;DHT22;19456;46.104;12.908;2023-05-14T03:29:32;12.30;99.90
33093;DHT22;19456;46.104;12.908;2023-05-14T03:31:57;12.30;99.90
33093;DHT22;19456;46.104;12.908;2023-05-14T03:34:23;12.20;99.90
33093;DHT22;19456;46.104;12.908;2023-05-14T03:36:48;12.00;99.90
33093;DHT22;19456;46.104;12.908;2023-05-14T03:39:14;11.90;99.90
33093;DHT22;19456;46.104;12.908;2023-05-14T03:41:47;12.00;99.90
33093;DHT22;19456;46.104;12.908;2023-05-14T03:44:12;12.00;99.90
33093;DHT22;19456;46.104;12.908;2023-05-14T03:46:38;11.90;99.90
33093;DHT22;19456;46.104;12.908;2023-05-14T03:49:04;11.80;99.90
33093;DHT22;19456;46.104;12.908;2023-05-14T03:51:29;11.70;99.90
33093;DHT22;19456;46.104;12.908;2023-05-14T03:53:56;11.40;99.90
33093;DHT22;19456;46.104;12.908;2023-05-14T03:56:22;11.30;99.90
33093;DHT22;19456;46.104;12.908;2023-05-14T03:58:48;11.30;99.90
33093;DHT22;19456;46.104;12.908;2023-05-14T04:01:14;11.30;99.90
33093;DHT22;19456;46.104;12.908;2023-05-14T04:03:39;11.20;99.90
33093;DHT22;19456;46.104;12.908;2023-05-14T04:06:05;11.20;99.90
33093;DHT22;19456;46.104;12.908;2023-05-14T04:08:30;11.20;99.90
33093;DHT22;19456;46.104;12.908;2023-05-14T04:10:56;11.20;99.90
33093;DHT22;19456;46.104;12.908;2023-05-14T04:13:21;11.20;99.90
33093;DHT22;19456;46.104;12.908;2023-05-14T04:15:47;11.20;99.90
33093;DHT22;19456;46.104;12.908;2023-05-14T04:18:12;11.20;99.90
33093;DHT22;19456;46.104;12.908;2023-05-14T04:20:38;11.10;99.90
33093;DHT22;19456;46.104;12.908;2023-05-14T04:23:04;11.00;99.90
33093;DHT22;19456;46.104;12.908;2023-05-14T04:25:30;11.10;99.90
33093;DHT22;19456;46.104;12.908;2023-05-14T04:27:56;11.10;99.90
33093;DHT22;19456;46.104;12.908;2023-05-14T04:30:22;11.20;99.90
33093;DHT22;19456;46.104;12.908;2023-05-14T04:32:47;11.20;99.90
33093;DHT22;19456;46.104;12.908;2023-05-14T04:35:13;11.20;99.90
33093;DHT22;19456;46.104;12.908;2023-05-14T04:37:38;11.20;99.90
33093;DHT22;19456;46.104;12.908;2023-05-14T04:40:05;11.20;99.90
33093;DHT22;19456;46.104;12.908;2023-05-14T04:42:31;11.20;99.90
33093;DHT22;19456;46.104;12.908;2023-05-14T04:44:56;11.20;99.90
33093;DHT22;19456;46.104;12.908;2023-05-14T04:47:22;11.20;99.90
33093;DHT22;19456;46.104;12.908;2023-05-14T04:49:47;11.20;99.90
33093;DHT22;19456;46.104;12.908;2023-05-14T04:52:13;11.20;99.90
33093;DHT22;19456;46.104;12.908;2023-05-14T04:54:38;11.30;99.90
33093;DHT22;19456;46.104;12.908;2023-05-14T04:57:04;11.30;99.90
33093;DHT22;19456;46.104;12.908;2023-05-14T04:59:30;11.40;99.90
33093;DHT22;19456;46.104;12.908;2023-05-14T05:01:56;11.40;99.90
33093;DHT22;19456;46.104;12.908;2023-05-14T05:04:22;11.40;99.90
33093;DHT22;19456;46.104;12.908;2023-05-14T05:06:51;11.40;99.90
33093;DHT22;19456;46.104;12.908;2023-05-14T05:09:16;11.40;99.90
33093;DHT22;19456;46.104;12.908;2023-05-14T05:11:42;11.40;99.90
33093;DHT22;19456;46.104;12.908;2023-05-14T05:14:08;11.40;99.90
33093;DHT22;19456;46.104;12.908;2023-05-14T05:16:33;11.40;99.90
33093;DHT22;19456;46.104;12.908;2023-05-14T05:18:59;11.50;99.90
33093;DHT22;19456;46.104;12.908;2023-05-14T05:21:24;11.50;99.90
33093;DHT22;19456;46.104;12.908;2023-05-14T05:23:50;11.60;99.90
33093;DHT22;19456;46.104;12.908;2023-05-14T05:26:15;11.70;99.90
33093;DHT22;19456;46.104;12.908;2023-05-14T05:28:41;11.90;99.90
33093;DHT22;19456;46.104;12.908;2023-05-14T05:31:07;11.90;99.90
33093;DHT22;19456;46.104;12.908;2023-05-14T05:33:33;12.00;99.90
33093;DHT22;19456;46.104;12.908;2023-05-14T05:35:58;11.90;99.90
33093;DHT22;19456;46.104;12.908;2023-05-14T05:38:24;11.80;99.90
33093;DHT22;19456;46.104;12.908;2023-05-14T05:40:50;11.80;99.90
33093;DHT22;19456;46.104;12.908;2023-05-14T05:43:15;11.90;99.90
33093;DHT22;19456;46.104;12.908;2023-05-14T05:45:41;12.00;99.90
33093;DHT22;19456;46.104;12.908;2023-05-14T05:48:06;12.10;99.90
33093;DHT22;19456;46.104;12.908;2023-05-14T05:50:32;12.20;99.90
33093;DHT22;19456;46.104;12.908;2023-05-14T05:52:57;12.30;99.90
33093;DHT22;19456;46.104;12.908;2023-05-14T05:55:27;12.20;99.90
33093;DHT22;19456;46.104;12.908;2023-05-14T05:57:52;12.20;99.90
33093;DHT22;19456;46.104;12.908;2023-05-14T06:00:18;12.30;99.90
33093;DHT22;19456;46.104;12.908;2023-05-14T06:02:45;12.40;99.90
33093;DHT22;19456;46.104;12.908;2023-05-14T06:05:10;12.40;99.90
33093;DHT22;19456;46.104;12.908;2023-05-14T06:07:37;12.40;99.90
33093;DHT22;19456;46.104;12.908;2023-05-14T06:10:02;12.40;99.90
33093;DHT22;19456;46.104;12.908;2023-05-14T06:12:28;12.40;99.90
33093;DHT22;19456;46.104;12.908;2023-05-14T06:14:53;12.50;99.90
33093;DHT22;19456;46.104;12.908;2023-05-14T06:17:20;12.60;99.90
33093;DHT22;19456;46.104;12.908;2023-05-14T06:19:45;12.70;99.90
33093;DHT22;19456;46.104;12.908;2023-05-14T06:22:11;12.80;99.90
33093;DHT22;19456;46.104;12.908;2023-05-14T06:24:36;12.90;99.90
33093;DHT22;19456;46.104;12.908;2023-05-14T06:27:02;13.00;99.90
33093;DHT22;19456;46.104;12.908;2023-05-14T06:29:28;13.10;99.90
33093;DHT22;19456;46.104;12.908;2023-05-14T06:31:55;13.20;99.90
33093;DHT22;19456;46.104;12.908;2023-05-14T06:34:21;13.30;99.90
33093;DHT22;19456;46.104;12.908;2023-05-14T06:36:47;13.30;99.90
33093;DHT22;19456;46.104;12.908;2023-05-14T06:39:12;13.40;99.90
33093;DHT22;19456;46.104;12.908;2023-05-14T06:41:41;13.40;99.90
33093;DHT22;19456;46.104;12.908;2023-05-14T06:44:06;13.50;99.90
33093;DHT22;19456;46.104;12.908;2023-05-14T06:46:32;13.60;99.90
33093;DHT22;19456;46.104;12.908;2023-05-14T06:48:57;13.60;99.90
33093;DHT22;19456;46.104;12.908;2023-05-14T06:51:23;13.60;99.90
33093;DHT22;19456;46.104;12.908;2023-05-14T06:53:48;13.60;99.90
33093;DHT22;19456;46.104;12.908;2023-05-14T06:56:14;13.70;99.90
33093;DHT22;19456;46.104;12.908;2023-05-14T06:58:40;13.60;99.90
33093;DHT22;19456;46.104;12.908;2023-05-14T07:01:05;13.70;99.90
33093;DHT22;19456;46.104;12.908;2023-05-14T07:03:34;13.60;99.90
33093;DHT22;19456;46.104;12.908;2023-05-14T07:06:00;13.60;99.90
33093;DHT22;19456;46.104;12.908;2023-05-14T07:08:25;13.70;99.90
33093;DHT22;19456;46.104;12.908;2023-05-14T07:10:51;13.80;99.90
33093;DHT22;19456;46.104;12.908;2023-05-14T07:13:16;13.80;99.90
33093;DHT22;19456;46.104;12.908;2023-05-14T07:15:42;13.80;99.90
33093;DHT22;19456;46.104;12.908;2023-05-14T07:18:07;13.80;99.90
33093;DHT22;19456;46.104;12.908;2023-05-14T07:20:33;13.60;99.90
33093;DHT22;19456;46.104;12.908;2023-05-14T07:22:58;13.70;99.90
33093;DHT22;19456;46.104;12.908;2023-05-14T07:25:24;13.40;99.90
33093;DHT22;19456;46.104;12.908;2023-05-14T07:27:50;13.50;99.90
33093;DHT22;19456;46.104;12.908;2023-05-14T07:30:15;13.50;99.90
33093;DHT22;19456;46.104;12.908;2023-05-14T07:32:41;13.60;99.90
33093;DHT22;19456;46.104;12.908;2023-05-14T07:35:06;13.70;99.90
33093;DHT22;19456;46.104;12.908;2023-05-14T07:37:32;13.70;99.90
33093;DHT22;19456;46.104;12.908;2023-05-14T07:39:57;13.60;99.90
33093;DHT22;19456;46.104;12.908;2023-05-14T07:42:23;13.60;99.90
33093;DHT22;19456;46.104;12.908;2023-05-14T07:44:48;13.60;99.90
33093;DHT22;19456;46.104;12.908;2023-05-14T07:47:15;13.50;99.90
33093;DHT22;19456;46.104;12.908;2023-05-14T07:49:41;13.50;99.90
33093;DHT22;19456;46.104;12.908;2023-05-14T07:52:06;13.50;99.90
33093;DHT22;19456;46.104;12.908;2023-05-14T07:54:32;13.60;99.90
33093;DHT22;19456;46.104;12.908;2023-05-14T07:56:57;13.80;99.90
33093;DHT22;19456;46.104;12.908;2023-05-14T07:59:23;13.90;99.90
33093;DHT22;19456;46.104;12.908;2023-05-14T08:01:48;13.80;99.90
33093;DHT22;19456;46.104;12.908;2023-05-14T08:04:14;13.70;99.90
33093;DHT22;19456;46.104;12.908;2023-05-14T08:06:40;13.60;99.90
33093;DHT22;19456;46.104;12.908;2023-05-14T08:09:06;13.60;99.90
33093;DHT22;19456;46.104;12.908;2023-05-14T08:11:33;13.70;99.90
33093;DHT22;19456;46.104;12.908;2023-05-14T08:13:58;13.80;99.90
33093;DHT22;19456;46.104;12.908;2023-05-14T08:16:24;13.90;99.90
33093;DHT22;19456;46.104;12.908;2023-05-14T08:18:50;13.90;99.90
33093;DHT22;19456;46.104;12.908;2023-05-14T08:21:16;13.80;99.90
33093;DHT22;19456;46.104;12.908;2023-05-14T08:23:41;13.80;99.90
33093;DHT22;19456;46.104;12.908;2023-05-14T08:26:07;13.80;99.90
33093;DHT22;19456;46.104;12.908;2023-05-14T08:28:33;13.90;99.90
33093;DHT22;19456;46.104;12.908;2023-05-14T08:30:58;14.00;99.90
33093;DHT22;19456;46.104;12.908;2023-05-14T08:33:24;14.00;99.90
33093;DHT22;19456;46.104;12.908;2023-05-14T08:35:52;13.90;99.90
33093;DHT22;19456;46.104;12.908;2023-05-14T08:38:19;13.80;99.90
33093;DHT22;19456;46.104;12.908;2023-05-14T08:40:48;13.80;99.90
33093;DHT22;19456;46.104;12.908;2023-05-14T08:43:18;13.60;99.90
33093;DHT22;19456;46.104;12.908;2023-05-14T08:45:45;13.60;99.90
33093;DHT22;19456;46.104;12.908;2023-05-14T08:48:11;13.60;99.90
33093;DHT22;19456;46.104;12.908;2023-05-14T08:50:39;13.60;99.90
33093;DHT22;19456;46.104;12.908;2023-05-14T08:53:05;13.60;99.90
33093;DHT22;19456;46.104;12.908;2023-05-14T08:55:30;13.60;99.90
33093;DHT22;19456;46.104;12.908;2023-05-14T08:57:57;13.60;99.90
33093;DHT22;19456;46.104;12.908;2023-05-14T09:00:23;13.60;99.90
33093;DHT22;19456;46.104;12.908;2023-05-14T09:02:50;13.60;99.90
33093;DHT22;19456;46.104;12.908;2023-05-14T09:05:16;13.70;99.90
33093;DHT22;19456;46.104;12.908;2023-05-14T09:07:43;13.60;99.90
33093;DHT22;19456;46.104;12.908;2023-05-14T09:10:09;13.70;99.90
33093;DHT22;19456;46.104;12.908;2023-05-14T09:12:35;13.70;99.90
33093;DHT22;19456;46.104;12.908;2023-05-14T09:15:01;13.90;99.90
33093;DHT22;19456;46.104;12.908;2023-05-14T09:17:26;14.00;99.90
33093;DHT22;19456;46.104;12.908;2023-05-14T09:19:52;14.20;99.90
33093;DHT22;19456;46.104;12.908;2023-05-14T09:22:18;14.20;99.90
33093;DHT22;19456;46.104;12.908;2023-05-14T09:24:44;14.30;99.90
33093;DHT22;19456;46.104;12.908;2023-05-14T09:27:19;14.40;99.90
33093;DHT22;19456;46.104;12.908;2023-05-14T09:29:47;14.30;99.90
33093;DHT22;19456;46.104;12.908;2023-05-14T09:32:13;14.50;99.90
33093;DHT22;19456;46.104;12.908;2023-05-14T09:34:38;14.70;99.90
33093;DHT22;19456;46.104;12.908;2023-05-14T09:37:05;14.80;99.90
33093;DHT22;19456;46.104;12.908;2023-05-14T09:39:31;14.90;99.90
33093;DHT22;19456;46.104;12.908;2023-05-14T09:41:57;15.00;99.90
33093;DHT22;19456;46.104;12.908;2023-05-14T09:44:22;15.10;99.90
33093;DHT22;19456;46.104;12.908;2023-05-14T09:46:48;15.20;99.90
33093;DHT22;19456;46.104;12.908;2023-05-14T09:49:14;15.20;99.90
33093;DHT22;19456;46.104;12.908;2023-05-14T09:51:40;15.10;99.90
33093;DHT22;19456;46.104;12.908;2023-05-14T09:54:06;14.90;99.90
33093;DHT22;19456;46.104;12.908;2023-05-14T09:56:32;14.80;99.90
33093;DHT22;19456;46.104;12.908;2023-05-14T09:58:57;14.80;99.90
33093;DHT22;19456;46.104;12.908;2023-05-14T10:01:23;14.80;99.90
33093;DHT22;19456;46.104;12.908;2023-05-14T10:03:48;14.90;99.90
33093;DHT22;19456;46.104;12.908;2023-05-14T10:06:15;14.80;99.90
33093;DHT22;19456;46.104;12.908;2023-05-14T10:08:42;14.90;99.90
33093;DHT22;19456;46.104;12.908;2023-05-14T10:11:17;14.90;99.90
33093;DHT22;19456;46.104;12.908;2023-05-14T10:14:06;14.90;99.90
33093;DHT22;19456;46.104;12.908;2023-05-14T10:16:39;14.80;99.90
33093;DHT22;19456;46.104;12.908;2023-05-14T10:19:08;14.80;99.90
33093;DHT22;19456;46.104;12.908;2023-05-14T10:21:35;14.80;99.90
33093;DHT22;19456;46.104;12.908;2023-05-14T10:24:01;14.80;99.90
33093;DHT22;19456;46.104;12.908;2023-05-14T10:26:28;14.80;99.90
33093;DHT22;19456;46.104;12.908;2023-05-14T10:28:54;14.70;99.90
33093;DHT22;19456;46.104;12.908;2023-05-14T10:31:21;14.70;99.90
33093;DHT22;19456;46.104;12.908;2023-05-14T10:33:50;14.80;99.90
33093;DHT22;19456;46.104;12.908;2023-05-14T10:36:16;14.90;99.90
33093;DHT22;19456;46.104;12.908;2023-05-14T10:38:42;14.90;99.90
33093;DHT22;19456;46.104;12.908;2023-05-14T10:41:11;14.90;99.90
33093;DHT22;19456;46.104;12.908;2023-05-14T10:43:38;15.00;99.90
33093;DHT22;19456;46.104;12.908;2023-05-14T10:46:04;15.10;99.90
33093;DHT22;19456;46.104;12.908;2023-05-14T10:48:30;15.20;99.90
33093;DHT22;19456;46.104;12.908;2023-05-14T10:50:56;15.20;99.90
33093;DHT22;19456;46.104;12.908;2023-05-14T10:53:32;15.20;99.90
33093;DHT22;19456;46.104;12.908;2023-05-14T10:56:09;15.00;99.90
33093;DHT22;19456;46.104;12.908;2023-05-14T10:58:35;15.00;99.90
33093;DHT22;19456;46.104;12.908;2023-05-14T11:01:01;15.00;99.90
33093;DHT22;19456;46.104;12.908;2023-05-14T11:03:30;15.00;99.90
33093;DHT22;19456;46.104;12.908;2023-05-14T11:05:56;15.00;99.90
33093;DHT22;19456;46.104;12.908;2023-05-14T11:08:22;15.00;99.90
33093;DHT22;19456;46.104;12.908;2023-05-14T11:10:50;15.10;99.90
33093;DHT22;19456;46.104;12.908;2023-05-14T11:13:16;15.10;99.90
33093;DHT22;19456;46.104;12.908;2023-05-14T11:15:43;15.00;99.90
33093;DHT22;19456;46.104;12.908;2023-05-14T11:18:12;14.90;99.90
33093;DHT22;19456;46.104;12.908;2023-05-14T11:20:38;14.80;99.90
33093;DHT22;19456;46.104;12.908;2023-05-14T11:23:04;14.80;99.90
33093;DHT22;19456;46.104;12.908;2023-05-14T11:25:30;14.80;99.90
33093;DHT22;19456;46.104;12.908;2023-05-14T11:27:55;14.70;99.90
33093;DHT22;19456;46.104;12.908;2023-05-14T11:30:23;14.60;99.90
33093;DHT22;19456;46.104;12.908;2023-05-14T11:32:48;14.50;99.90
33093;DHT22;19456;46.104;12.908;2023-05-14T11:35:15;14.50;99.90
33093;DHT22;19456;46.104;12.908;2023-05-14T11:37:41;14.40;99.90
33093;DHT22;19456;46.104;12.908;2023-05-14T11:40:07;14.40;99.90
33093;DHT22;19456;46.104;12.908;2023-05-14T11:42:36;14.40;99.90
33093;DHT22;19456;46.104;12.908;2023-05-14T11:45:03;14.30;99.90
33093;DHT22;19456;46.104;12.908;2023-05-14T11:47:28;14.30;99.90
33093;DHT22;19456;46.104;12.908;2023-05-14T11:49:55;14.30;99.90
33093;DHT22;19456;46.104;12.908;2023-05-14T11:52:20;14.30;99.90
33093;DHT22;19456;46.104;12.908;2023-05-14T11:54:46;14.20;99.90
33093;DHT22;19456;46.104;12.908;2023-05-14T11:57:20;14.20;99.90
33093;DHT22;19456;46.104;12.908;2023-05-14T11:59:46;14.10;99.90
33093;DHT22;19456;46.104;12.908;2023-05-14T12:02:12;14.10;99.90
33093;DHT22;19456;46.104;12.908;2023-05-14T12:04:38;14.00;99.90
33093;DHT22;19456;46.104;12.908;2023-05-14T12:07:10;14.00;99.90
33093;DHT22;19456;46.104;12.908;2023-05-14T12:09:37;14.00;99.90
33093;DHT22;19456;46.104;12.908;2023-05-14T12:12:09;13.90;99.90
33093;DHT22;19456;46.104;12.908;2023-05-14T12:14:40;13.90;99.90
33093;DHT22;19456;46.104;12.908;2023-05-14T12:17:19;13.90;99.90
33093;DHT22;19456;46.104;12.908;2023-05-14T12:19:47;13.90;99.90
33093;DHT22;19456;46.104;12.908;2023-05-14T12:22:13;13.90;99.90
33093;DHT22;19456;46.104;12.908;2023-05-14T12:24:39;13.90;99.90
33093;DHT22;19456;46.104;12.908;2023-05-14T12:27:06;13.90;99.90
33093;DHT22;19456;46.104;12.908;2023-05-14T12:29:34;14.00;99.90
33093;DHT22;19456;46.104;12.908;2023-05-14T12:32:00;13.90;99.90
33093;DHT22;19456;46.104;12.908;2023-05-14T12:34:28;14.00;99.90
33093;DHT22;19456;46.104;12.908;2023-05-14T12:36:54;14.10;99.90
33093;DHT22;19456;46.104;12.908;2023-05-14T12:39:19;14.10;99.90
33093;DHT22;19456;46.104;12.908;2023-05-14T12:41:45;14.10;99.90
33093;DHT22;19456;46.104;12.908;2023-05-14T12:44:11;14.00;99.90
33093;DHT22;19456;46.104;12.908;2023-05-14T12:46:36;14.00;99.90
33093;DHT22;19456;46.104;12.908;2023-05-14T12:49:02;13.90;99.90
33093;DHT22;19456;46.104;12.908;2023-05-14T12:51:28;13.90;99.90
33093;DHT22;19456;46.104;12.908;2023-05-14T12:53:54;14.00;99.90
33093;DHT22;19456;46.104;12.908;2023-05-14T12:56:19;13.90;99.90
33093;DHT22;19456;46.104;12.908;2023-05-14T12:58:45;14.00;99.90
33093;DHT22;19456;46.104;12.908;2023-05-14T13:01:11;14.00;99.90
33093;DHT22;19456;46.104;12.908;2023-05-14T13:03:37;13.90;99.90
33093;DHT22;19456;46.104;12.908;2023-05-14T13:06:02;13.90;99.90
33093;DHT22;19456;46.104;12.908;2023-05-14T13:08:28;13.80;99.90
33093;DHT22;19456;46.104;12.908;2023-05-14T13:10:53;13.90;99.90
33093;DHT22;19456;46.104;12.908;2023-05-14T13:13:19;14.00;99.90
33093;DHT22;19456;46.104;12.908;2023-05-14T13:15:45;14.10;99.90
33093;DHT22;19456;46.104;12.908;2023-05-14T13:18:14;14.10;99.90
33093;DHT22;19456;46.104;12.908;2023-05-14T13:20:40;14.10;99.90
33093;DHT22;19456;46.104;12.908;2023-05-14T13:23:06;14.10;99.90
33093;DHT22;19456;46.104;12.908;2023-05-14T13:25:32;14.30;99.90
33093;DHT22;19456;46.104;12.908;2023-05-14T13:27:58;14.40;99.90
33093;DHT22;19456;46.104;12.908;2023-05-14T13:30:23;14.30;99.90
33093;DHT22;19456;46.104;12.908;2023-05-14T13:32:49;14.30;99.90
33093;DHT22;19456;46.104;12.908;2023-05-14T13:35:15;14.40;99.90
33093;DHT22;19456;46.104;12.908;2023-05-14T13:37:43;14.60;99.90
33093;DHT22;19456;46.104;12.908;2023-05-14T13:40:09;14.60;99.90
33093;DHT22;19456;46.104;12.908;2023-05-14T13:42:35;14.60;99.90
33093;DHT22;19456;46.104;12.908;2023-05-14T13:45:01;14.50;99.90
33093;DHT22;19456;46.104;12.908;2023-05-14T13:47:26;14.50;99.90
33093;DHT22;19456;46.104;12.908;2023-05-14T13:49:52;14.60;99.90
33093;DHT22;19456;46.104;12.908;2023-05-14T13:52:18;14.70;99.90
33093;DHT22;19456;46.104;12.908;2023-05-14T13:54:43;14.80;99.90
33093;DHT22;19456;46.104;12.908;2023-05-14T13:57:09;14.70;99.90
33093;DHT22;19456;46.104;12.908;2023-05-14T13:59:35;14.60;99.90
33093;DHT22;19456;46.104;12.908;2023-05-14T14:02:00;14.40;99.90
33093;DHT22;19456;46.104;12.908;2023-05-14T14:04:26;14.50;99.90
33093;DHT22;19456;46.104;12.908;2023-05-14T14:06:55;14.60;99.90
33093;DHT22;19456;46.104;12.908;2023-05-14T14:09:20;14.70;99.90
33093;DHT22;19456;46.104;12.908;2023-05-14T14:11:46;14.70;99.90
33093;DHT22;19456;46.104;12.908;2023-05-14T14:14:12;14.80;99.90
33093;DHT22;19456;46.104;12.908;2023-05-14T14:16:37;14.90;99.90
33093;DHT22;19456;46.104;12.908;2023-05-14T14:19:03;15.00;99.90
33093;DHT22;19456;46.104;12.908;2023-05-14T14:21:28;15.00;99.90
33093;DHT22;19456;46.104;12.908;2023-05-14T14:23:55;15.00;99.90
33093;DHT22;19456;46.104;12.908;2023-05-14T14:26:20;15.00;99.90
33093;DHT22;19456;46.104;12.908;2023-05-14T14:28:46;15.10;99.90
33093;DHT22;19456;46.104;12.908;2023-05-14T14:31:12;15.20;99.90
33093;DHT22;19456;46.104;12.908;2023-05-14T14:33:37;15.20;99.90
33093;DHT22;19456;46.104;12.908;2023-05-14T14:36:03;15.20;99.90
33093;DHT22;19456;46.104;12.908;2023-05-14T14:38:29;14.90;99.90
33093;DHT22;19456;46.104;12.908;2023-05-14T14:40:55;15.00;99.90
33093;DHT22;19456;46.104;12.908;2023-05-14T14:43:21;14.90;99.90
33093;DHT22;19456;46.104;12.908;2023-05-14T14:45:47;14.90;99.90
33093;DHT22;19456;46.104;12.908;2023-05-14T14:50:47;14.70;99.90
33093;DHT22;19456;46.104;12.908;2023-05-14T14:53:12;14.70;99.90
33093;DHT22;19456;46.104;12.908;2023-05-14T14:55:38;14.70;99.90
33093;DHT22;19456;46.104;12.908;2023-05-14T14:58:04;14.80;99.90
33093;DHT22;19456;46.104;12.908;2023-05-14T15:00:29;14.50;99.90
33093;DHT22;19456;46.104;12.908;2023-05-14T15:02:55;14.50;99.90
33093;DHT22;19456;46.104;12.908;2023-05-14T15:05:20;14.60;99.90
33093;DHT22;19456;46.104;12.908;2023-05-14T15:07:46;14.70;99.90
33093;DHT22;19456;46.104;12.908;2023-05-14T15:10:11;14.80;99.90
33093;DHT22;19456;46.104;12.908;2023-05-14T15:12:37;15.00;99.90
33093;DHT22;19456;46.104;12.908;2023-05-14T15:15:02;15.10;99.90
33093;DHT22;19456;46.104;12.908;2023-05-14T15:17:28;15.30;99.90